Ravalli County (6S5)
Hamilton, MT
Field Elevation: 3642
Lat: 45°15.05N  Long: 114°07.31W
CTAF/Unicom Freq: 122.8000
   
     For Weather-by-Phone, call 406-375-9149
Weather Advisories
1/27/2015 22:54 Z
Altimeter 29.97" Hg
Wind 014° @ 3 KT
Gusts --
Visibility 10 SM
Temperature 7° C (45° F)
Dewpoint -1° C (30° F)
Relative Humidity 59%
Density Altitude 3,422 feet
Condensation Altitude 7,253 feet
Wind Chill 6° C (43° F)
  Wind and Runways
Indicated Runway = 34
History
 
 
More Info
All DigiWx sites map
NOAA Forecast
 
Airport IQ 5010
(S59) Libby
(79S) Fort Benton
 
about DigiWx
 
FAA Disclaimer: The data displayed is for advisory purposes only and is not to be used for flight planning or operations. For official data, please call 406-375-9149 to hear the current automated AWOS voice message.
  METAR 6S5 272254Z AUTO 01003KT 10SM 07/M01 A2997